La Prairie, Illinois
Current Conditions -  °F | °C
As of 2:54 PM on Friday 28 Nov 2014 (Local Time) from KUIN Reporting Station
Clear Clear  
Wind Chill: 44°   Ceiling: Unl
Heat Index: 48°   Visibility: 10mi
Dew Point: 33°   Wind: 8mph
Humidity: 56%   Direction: 160°SSE
Pressure: 29.89"   Gusts: NA
Location:  40.15°N, 91°W
Report Text: KUIN 282054Z AUTO 16007KT 10SM CLR 09/01 A2989 RMK AO2 SLP128 T00890006 56026
Loading
Personal Weather Stations






























Interactive Weather Map New forecast layout! Learn more

10-Day Weather Forecast

Advertisements
Track Severe Weather on mobile